createdAt,value
2023-04-27T00:00:59.293Z,6.13
2023-04-27T00:02:02.395Z,9.57
2023-04-27T00:03:06.460Z,4.85
2023-04-27T00:04:08.914Z,6.82
2023-04-27T00:05:11.986Z,4.63
2023-04-27T00:06:14.744Z,5.75
2023-04-27T00:07:16.946Z,6.25
2023-04-27T00:08:18.861Z,5.95
2023-04-27T00:09:20.925Z,6.28
2023-04-27T00:10:23.192Z,6.55
2023-04-27T00:11:25.306Z,5.57
2023-04-27T00:12:27.286Z,6.93
2023-04-27T00:13:29.372Z,5.28
2023-04-27T00:14:31.608Z,5.07
2023-04-27T00:15:33.556Z,5.85
2023-04-27T00:16:35.817Z,4.80
2023-04-27T00:17:37.858Z,8.13
2023-04-27T00:18:40.233Z,5.82
2023-04-27T00:19:42.362Z,6.15
2023-04-27T00:20:44.953Z,8.00
2023-04-27T00:21:47.334Z,7.63
2023-04-27T00:22:49.731Z,6.78
2023-04-27T00:23:51.672Z,5.60
2023-04-27T00:24:53.963Z,5.18
2023-04-27T00:25:56.049Z,6.20
2023-04-27T00:26:58.330Z,5.95
2023-04-27T00:28:00.200Z,5.18
2023-04-27T00:29:02.046Z,5.53
2023-04-27T00:30:04.720Z,6.50
2023-04-27T00:31:07.289Z,6.10
2023-04-27T00:32:10.915Z,6.18
2023-04-27T00:33:12.918Z,6.00
2023-04-27T00:34:14.908Z,5.50
2023-04-27T00:35:17.295Z,5.30
2023-04-27T00:36:19.257Z,7.85
2023-04-27T00:37:21.395Z,7.32
2023-04-27T00:38:23.299Z,6.32
2023-04-27T00:39:25.652Z,8.20
2023-04-27T00:40:27.645Z,5.82
2023-04-27T00:41:29.545Z,6.75
2023-04-27T00:42:31.557Z,7.30
2023-04-27T00:43:41.721Z,5.38
2023-04-27T00:44:43.643Z,5.07
2023-04-27T00:45:45.864Z,5.00
2023-04-27T00:46:47.840Z,5.90
2023-04-27T00:47:50.268Z,5.70
2023-04-27T00:48:52.259Z,6.25
2023-04-27T00:49:54.569Z,6.97
2023-04-27T00:50:56.457Z,6.25
2023-04-27T00:51:58.850Z,6.68
2023-04-27T00:53:02.222Z,9.57
2023-04-27T00:54:04.855Z,6.22
2023-04-27T00:55:07.407Z,5.85
2023-04-27T00:57:11.527Z,6.63
2023-04-27T00:58:13.435Z,8.07
2023-04-27T00:59:16.444Z,6.30
2023-04-27T01:00:19.111Z,6.90
2023-04-27T01:01:21.157Z,5.72
2023-04-27T01:02:23.379Z,8.15
2023-04-27T01:03:26.654Z,7.18
2023-04-27T01:04:29.378Z,5.20
2023-04-27T01:05:32.587Z,6.35
2023-04-27T01:06:34.710Z,6.05
2023-04-27T01:07:40.561Z,6.60
2023-04-27T01:08:42.858Z,5.85
2023-04-27T01:09:44.828Z,8.18
2023-04-27T01:10:46.792Z,5.25
2023-04-27T01:11:48.932Z,6.13
2023-04-27T01:12:51.289Z,7.47
2023-04-27T01:13:55.200Z,5.47
2023-04-27T01:14:57.132Z,4.97
2023-04-27T01:15:59.024Z,6.03
2023-04-27T01:17:01.434Z,4.70
2023-04-27T01:18:04.610Z,8.40
2023-04-27T01:19:07.903Z,5.82
2023-04-27T01:20:10.377Z,6.32
2023-04-27T01:21:12.742Z,4.90
2023-04-27T01:22:15.457Z,6.07
2023-04-27T01:23:17.728Z,6.97
2023-04-27T01:24:19.866Z,5.45
2023-04-27T01:25:22.064Z,6.03
2023-04-27T01:26:24.055Z,6.53
2023-04-27T01:27:26.132Z,6.30
2023-04-27T01:28:28.013Z,7.25
2023-04-27T01:29:30.361Z,5.90
2023-04-27T01:30:32.363Z,7.10
2023-04-27T01:31:34.465Z,5.90
2023-04-27T01:32:38.409Z,7.20
2023-04-27T01:33:41.502Z,5.60
2023-04-27T01:34:43.352Z,5.65
2023-04-27T01:35:45.392Z,6.75
2023-04-27T01:36:47.385Z,5.72
2023-04-27T01:37:49.658Z,6.35
2023-04-27T01:38:51.835Z,8.30
2023-04-27T01:39:53.774Z,5.93
2023-04-27T01:41:02.004Z,6.68
2023-04-27T01:42:04.694Z,5.57
2023-04-27T01:43:06.794Z,7.25
2023-04-27T01:44:08.782Z,10.15
2023-04-27T01:45:11.572Z,6.57
2023-04-27T01:46:15.022Z,5.55
2023-04-27T01:47:19.734Z,4.93
2023-04-27T01:48:21.700Z,6.13
2023-04-27T01:49:23.632Z,5.50
2023-04-27T01:50:25.862Z,8.27
2023-04-27T01:51:27.862Z,5.18
2023-04-27T01:52:29.882Z,7.78
2023-04-27T01:53:31.851Z,6.95
2023-04-27T01:54:34.150Z,6.25
2023-04-27T01:55:36.122Z,5.15
2023-04-27T01:56:38.108Z,5.72
2023-04-27T01:57:40.049Z,6.78
2023-04-27T01:58:42.453Z,6.05
2023-04-27T01:59:44.379Z,6.20
2023-04-27T02:00:46.318Z,5.68
2023-04-27T02:01:48.254Z,6.72
2023-04-27T02:02:54.432Z,5.88
2023-04-27T02:03:56.630Z,4.95
2023-04-27T02:04:58.754Z,5.07
2023-04-27T02:06:01.185Z,8.15
2023-04-27T02:07:03.757Z,6.47
2023-04-27T02:08:06.415Z,7.93
2023-04-27T02:09:08.402Z,6.18
2023-04-27T02:10:11.129Z,5.45
2023-04-27T02:11:13.376Z,6.65
2023-04-27T02:12:15.233Z,5.20
2023-04-27T02:13:17.180Z,5.93
2023-04-27T02:14:19.158Z,6.35
2023-04-27T02:15:21.474Z,6.28
2023-04-27T02:16:23.683Z,8.80
2023-04-27T02:17:25.806Z,5.95
2023-04-27T02:18:28.265Z,4.80
2023-04-27T02:19:30.764Z,5.53
2023-04-27T02:20:33.177Z,6.00
2023-04-27T02:21:35.091Z,7.35
2023-04-27T02:22:37.834Z,5.88
2023-04-27T02:23:40.153Z,6.35
2023-04-27T02:24:42.212Z,6.10
2023-04-27T02:25:47.003Z,8.13
2023-04-27T02:26:49.108Z,5.38
2023-04-27T02:27:51.412Z,5.63
2023-04-27T02:28:53.721Z,6.03
2023-04-27T02:29:56.314Z,4.35
2023-04-27T02:30:58.945Z,4.82
2023-04-27T02:32:01.367Z,5.35
2023-04-27T02:33:03.417Z,5.28
2023-04-27T02:34:05.368Z,5.65
2023-04-27T02:35:08.336Z,10.40
2023-04-27T02:36:10.580Z,6.78
2023-04-27T02:37:12.517Z,6.15
2023-04-27T02:38:14.602Z,5.45
2023-04-27T02:39:16.678Z,4.97
2023-04-27T02:40:18.873Z,5.35
2023-04-27T02:41:21.067Z,5.35
2023-04-27T02:42:23.599Z,5.32
2023-04-27T02:43:25.543Z,5.13
2023-04-27T02:44:27.767Z,10.60
2023-04-27T02:45:29.961Z,6.32
2023-04-27T02:46:32.127Z,7.03
2023-04-27T02:47:35.647Z,7.15
2023-04-27T02:48:37.960Z,6.65
2023-04-27T02:49:40.297Z,6.80
2023-04-27T02:50:42.941Z,5.15
2023-04-27T02:51:44.928Z,7.57
2023-04-27T02:52:47.207Z,6.05
2023-04-27T02:53:49.185Z,6.80
2023-04-27T02:54:51.183Z,5.95
2023-04-27T02:55:53.134Z,5.63
2023-04-27T02:56:55.616Z,5.15
2023-04-27T02:57:57.632Z,5.45
2023-04-27T02:58:59.532Z,5.85
2023-04-27T03:00:02.793Z,6.15
2023-04-27T03:01:05.953Z,8.98
2023-04-27T03:02:07.973Z,6.07
2023-04-27T03:03:13.334Z,8.25
2023-04-27T03:04:16.631Z,5.78
2023-04-27T03:05:19.477Z,7.35
2023-04-27T03:06:21.419Z,5.43
2023-04-27T03:07:23.441Z,7.90
2023-04-27T03:08:25.417Z,5.65
2023-04-27T03:09:27.619Z,6.20
2023-04-27T03:10:29.552Z,5.75
2023-04-27T03:11:31.618Z,5.57
2023-04-27T03:12:33.748Z,6.47
2023-04-27T03:13:42.072Z,4.95
2023-04-27T03:14:44.194Z,6.97
2023-04-27T03:15:46.495Z,6.07
2023-04-27T03:16:48.569Z,6.57
2023-04-27T03:17:50.970Z,4.65
2023-04-27T03:18:52.932Z,6.80
2023-04-27T03:19:54.916Z,5.60
2023-04-27T03:21:06.021Z,5.97
2023-04-27T03:22:08.278Z,4.65
2023-04-27T03:23:10.260Z,4.82
2023-04-27T03:24:12.178Z,8.27
2023-04-27T03:25:14.249Z,7.82
2023-04-27T03:26:16.849Z,5.68
2023-04-27T03:27:18.784Z,5.38
2023-04-27T03:28:20.903Z,6.10
2023-04-27T03:29:22.803Z,6.57
2023-04-27T03:30:25.210Z,4.55
2023-04-27T03:31:27.126Z,6.53
2023-04-27T03:32:29.115Z,7.43
2023-04-27T03:33:31.075Z,8.27
2023-04-27T03:34:33.565Z,7.40
2023-04-27T03:35:35.579Z,6.30
2023-04-27T03:36:37.629Z,5.35
2023-04-27T03:37:39.565Z,6.78
2023-04-27T03:38:42.033Z,5.90
2023-04-27T03:39:45.245Z,5.88
2023-04-27T03:40:47.197Z,5.22
2023-04-27T03:41:49.294Z,6.25
2023-04-27T03:42:51.740Z,5.05
2023-04-27T03:43:53.761Z,5.82
2023-04-27T03:44:55.681Z,6.90
2023-04-27T03:45:57.846Z,5.30
2023-04-27T03:47:00.856Z,6.82
2023-04-27T03:48:02.748Z,5.90
2023-04-27T03:49:04.698Z,6.70
2023-04-27T03:50:07.194Z,6.57
2023-04-27T03:51:09.571Z,6.70
2023-04-27T03:52:11.619Z,5.53
2023-04-27T03:53:14.246Z,5.88
2023-04-27T03:54:16.185Z,6.00
2023-04-27T03:55:19.015Z,5.28
2023-04-27T03:56:20.989Z,6.32
2023-04-27T03:57:22.937Z,7.30
2023-04-27T03:58:25.024Z,6.25
2023-04-27T03:59:30.147Z,7.78
2023-04-27T04:00:32.101Z,8.52
2023-04-27T04:01:37.458Z,11.98
2023-04-27T04:02:39.741Z,5.60
2023-04-27T04:03:42.622Z,6.28
2023-04-27T04:04:44.677Z,6.18
2023-04-27T04:05:47.406Z,6.50
2023-04-27T04:06:49.316Z,5.47
2023-04-27T04:07:51.833Z,7.95
2023-04-27T04:08:54.851Z,6.43
2023-04-27T04:09:56.891Z,7.13
2023-04-27T04:10:58.863Z,7.13
2023-04-27T04:12:02.178Z,7.07
2023-04-27T04:14:06.147Z,6.15
2023-04-27T04:15:08.983Z,6.90
2023-04-27T04:16:11.366Z,6.75
2023-04-27T04:17:13.419Z,6.22
2023-04-27T04:18:15.774Z,6.47
2023-04-27T04:19:17.621Z,5.57
2023-04-27T04:20:19.945Z,6.47
2023-04-27T04:21:22.041Z,5.82
2023-04-27T04:22:23.934Z,7.35
2023-04-27T04:23:26.209Z,8.50
2023-04-27T04:24:28.511Z,7.43
2023-04-27T04:25:30.423Z,6.05
2023-04-27T04:26:32.677Z,5.78
2023-04-27T04:27:34.858Z,7.78
2023-04-27T04:28:37.358Z,6.72
2023-04-27T04:29:39.608Z,5.53
2023-04-27T04:30:41.583Z,6.72
2023-04-27T04:31:43.613Z,7.70
2023-04-27T04:32:46.157Z,6.00
2023-04-27T04:33:48.127Z,8.43
2023-04-27T04:34:52.877Z,4.93
2023-04-27T04:35:54.887Z,5.72
2023-04-27T04:36:59.914Z,7.72
2023-04-27T04:38:01.823Z,5.75
2023-04-27T04:39:05.561Z,6.13
2023-04-27T04:40:11.452Z,6.70
2023-04-27T04:41:13.854Z,5.13
2023-04-27T04:42:16.349Z,5.80
2023-04-27T04:43:18.412Z,7.85
2023-04-27T04:44:20.980Z,5.43
2023-04-27T04:46:26.074Z,6.55
2023-04-27T04:47:28.017Z,10.82
2023-04-27T04:48:30.017Z,7.38
2023-04-27T04:49:32.525Z,8.55
2023-04-27T04:50:34.478Z,10.75
2023-04-27T04:51:36.556Z,8.88
2023-04-27T04:52:38.744Z,8.10
2023-04-27T04:54:43.284Z,4.88
2023-04-27T04:55:45.143Z,5.13
2023-04-27T04:56:47.124Z,5.43
2023-04-27T04:57:49.335Z,6.95
2023-04-27T04:58:51.321Z,7.30
2023-04-27T04:59:53.554Z,6.15
2023-04-27T05:00:55.564Z,4.80
2023-04-27T05:01:57.984Z,6.65
2023-04-27T05:03:01.393Z,4.38
2023-04-27T05:04:03.738Z,5.78
2023-04-27T05:05:06.219Z,5.30
2023-04-27T05:06:09.478Z,5.13
2023-04-27T05:08:17.519Z,5.93
2023-04-27T05:09:19.429Z,5.88
2023-04-27T05:10:21.729Z,5.60
2023-04-27T05:11:23.720Z,9.50
2023-04-27T05:12:25.688Z,4.25
2023-04-27T05:13:28.230Z,5.05
2023-04-27T05:14:30.464Z,6.32
2023-04-27T05:15:32.837Z,5.43
2023-04-27T05:16:34.789Z,4.95
2023-04-27T05:17:36.926Z,5.90
2023-04-27T05:18:39.274Z,4.78
2023-04-27T05:19:41.248Z,4.72
2023-04-27T05:20:43.232Z,6.18
2023-04-27T05:21:45.792Z,5.00
2023-04-27T05:23:50.066Z,4.30
2023-04-27T05:24:52.169Z,6.85
2023-04-27T05:25:54.111Z,4.95
2023-04-27T05:26:56.486Z,6.72
2023-04-27T05:27:58.630Z,4.53
2023-04-27T05:29:01.000Z,5.32
2023-04-27T05:30:09.838Z,5.22
2023-04-27T05:31:12.385Z,3.67
2023-04-27T05:32:14.375Z,5.10
2023-04-27T05:33:16.339Z,3.45
2023-04-27T05:34:18.247Z,5.05
2023-04-27T05:35:20.959Z,7.95
2023-04-27T05:36:22.894Z,3.42
2023-04-27T05:37:24.824Z,4.85
2023-04-27T05:38:26.943Z,4.15
2023-04-27T05:39:29.237Z,9.32
2023-04-27T05:40:31.310Z,3.80
2023-04-27T05:41:33.589Z,5.47
2023-04-27T05:42:36.428Z,7.28
2023-04-27T05:43:39.062Z,5.63
2023-04-27T05:44:41.000Z,5.10
2023-04-27T05:45:42.966Z,5.35
2023-04-27T05:46:44.848Z,8.43
2023-04-27T05:47:47.158Z,5.82
2023-04-27T05:48:49.150Z,5.82
2023-04-27T05:49:52.854Z,4.20
2023-04-27T05:51:04.245Z,5.95
2023-04-27T05:52:06.592Z,4.18
2023-04-27T05:53:08.631Z,4.07
2023-04-27T05:54:10.572Z,4.22
2023-04-27T05:55:12.499Z,4.18
2023-04-27T05:56:15.090Z,7.10
2023-04-27T05:57:17.405Z,4.13
2023-04-27T05:58:19.340Z,6.43
2023-04-27T05:59:22.122Z,4.45
2023-04-27T06:00:25.303Z,5.32
2023-04-27T06:02:29.553Z,5.32
2023-04-27T06:03:32.296Z,7.18
2023-04-27T06:04:34.959Z,5.70
2023-04-27T06:05:37.114Z,5.93
2023-04-27T06:06:39.341Z,4.45
2023-04-27T06:07:43.967Z,5.38
2023-04-27T06:08:46.457Z,4.20
2023-04-27T06:09:48.549Z,5.13
2023-04-27T06:10:51.509Z,10.00
2023-04-27T06:11:53.530Z,3.40
2023-04-27T06:12:56.022Z,3.08
2023-04-27T06:13:58.033Z,6.15
2023-04-27T06:15:00.103Z,4.72
2023-04-27T06:16:02.554Z,5.65
2023-04-27T06:17:04.995Z,5.90
2023-04-27T06:18:07.064Z,3.70
2023-04-27T06:19:09.194Z,4.22
2023-04-27T06:20:12.088Z,3.22
2023-04-27T06:21:14.379Z,4.05
2023-04-27T06:22:16.312Z,6.05
2023-04-27T06:23:18.309Z,3.70
2023-04-27T06:24:20.490Z,4.50
2023-04-27T06:25:24.444Z,4.03
2023-04-27T06:26:28.734Z,4.60
2023-04-27T06:27:30.709Z,5.03
2023-04-27T06:28:32.599Z,3.47
2023-04-27T06:29:34.909Z,4.53
2023-04-27T06:30:38.272Z,4.68
2023-04-27T06:31:41.822Z,5.40
2023-04-27T06:32:43.851Z,4.82
2023-04-27T06:33:46.301Z,6.90
2023-04-27T06:34:48.309Z,7.20
2023-04-27T06:35:50.301Z,3.38
2023-04-27T06:36:52.209Z,4.78
2023-04-27T06:37:58.947Z,4.60
2023-04-27T06:39:01.136Z,4.88
2023-04-27T06:40:04.219Z,4.03
2023-04-27T06:41:06.758Z,4.65
2023-04-27T06:43:10.873Z,5.55
2023-04-27T06:44:12.815Z,4.40
2023-04-27T06:45:14.683Z,4.00
2023-04-27T06:46:17.029Z,3.42
2023-04-27T06:47:19.011Z,4.88
2023-04-27T06:48:20.996Z,2.95
2023-04-27T06:49:22.985Z,4.60
2023-04-27T06:50:25.331Z,5.53
2023-04-27T06:51:27.307Z,4.32
2023-04-27T06:52:32.331Z,3.97
2023-04-27T06:53:34.285Z,5.10
2023-04-27T06:54:36.567Z,5.18
2023-04-27T06:55:39.309Z,5.00
2023-04-27T06:56:42.238Z,7.15
2023-04-27T06:57:44.176Z,3.45
2023-04-27T06:58:46.605Z,4.53
2023-04-27T06:59:48.722Z,6.13
2023-04-27T07:00:51.111Z,3.38
2023-04-27T07:01:53.172Z,4.55
2023-04-27T07:02:55.722Z,3.13
2023-04-27T07:03:57.906Z,5.28
2023-04-27T07:05:00.046Z,3.20
2023-04-27T07:06:02.225Z,4.53
2023-04-27T07:07:04.561Z,5.45
2023-04-27T07:08:08.833Z,3.17
2023-04-27T07:09:26.042Z,3.88
2023-04-27T07:10:29.333Z,4.25
2023-04-27T07:11:31.931Z,4.85
2023-04-27T07:12:33.987Z,3.80
2023-04-27T07:13:36.046Z,3.45
2023-04-27T07:14:38.158Z,5.07
2023-04-27T07:15:40.461Z,2.65
2023-04-27T07:16:44.360Z,5.75
2023-04-27T07:17:46.718Z,3.97
2023-04-27T07:18:48.751Z,3.60
2023-04-27T07:19:51.134Z,5.72
2023-04-27T07:20:53.108Z,7.50
2023-04-27T07:21:55.089Z,4.05
2023-04-27T07:22:57.065Z,3.83
2023-04-27T07:23:59.376Z,2.75
2023-04-27T07:25:01.299Z,3.72
2023-04-27T07:26:03.260Z,4.38
2023-04-27T07:27:05.205Z,4.65
2023-04-27T07:28:07.562Z,4.20
2023-04-27T07:29:26.664Z,3.78
2023-04-27T07:30:31.186Z,2.90
2023-04-27T07:31:33.392Z,3.10
2023-04-27T07:32:42.044Z,5.05
2023-04-27T07:33:44.396Z,2.80
2023-04-27T07:34:53.636Z,6.28
2023-04-27T07:35:56.865Z,4.65
2023-04-27T07:36:59.216Z,3.38
2023-04-27T07:38:02.862Z,3.30
2023-04-27T07:39:04.971Z,3.42
2023-04-27T07:40:16.804Z,3.05
2023-04-27T07:41:20.454Z,3.05
2023-04-27T07:42:25.364Z,5.35
2023-04-27T07:43:28.205Z,6.55
2023-04-27T07:44:31.616Z,2.75
2023-04-27T07:45:34.298Z,4.03
2023-04-27T07:46:36.211Z,2.63
2023-04-27T07:47:39.316Z,7.57
2023-04-27T07:48:41.433Z,4.35
2023-04-27T07:49:46.412Z,3.42
2023-04-27T07:50:48.336Z,5.35
2023-04-27T07:51:50.341Z,3.97
2023-04-27T07:52:54.195Z,3.50
2023-04-27T07:53:56.543Z,3.25
2023-04-27T07:54:58.466Z,4.22
2023-04-27T07:56:00.423Z,3.35
2023-04-27T07:57:08.975Z,4.38
2023-04-27T07:58:11.838Z,5.15
2023-04-27T07:59:15.870Z,3.83
2023-04-27T08:00:18.357Z,2.95
2023-04-27T08:01:21.595Z,3.78
2023-04-27T08:02:24.104Z,3.10
2023-04-27T08:03:26.544Z,5.18
2023-04-27T08:04:28.864Z,4.75
2023-04-27T08:05:31.953Z,4.82
2023-04-27T08:06:35.833Z,3.80
2023-04-27T08:07:42.790Z,4.03
2023-04-27T08:08:46.709Z,4.60
2023-04-27T08:09:51.535Z,2.97
2023-04-27T08:10:53.741Z,3.45
2023-04-27T08:11:55.733Z,7.43
2023-04-27T08:12:57.805Z,3.28
2023-04-27T08:13:59.757Z,3.13
2023-04-27T08:15:02.153Z,3.63
2023-04-27T08:16:04.796Z,5.32
2023-04-27T08:17:07.098Z,3.03
2023-04-27T08:18:09.144Z,4.65
2023-04-27T08:19:11.970Z,3.03
2023-04-27T08:20:14.246Z,8.10
2023-04-27T08:21:16.470Z,3.30
2023-04-27T08:22:18.766Z,3.58
2023-04-27T08:23:21.168Z,5.55
2023-04-27T08:24:23.130Z,2.67
2023-04-27T08:25:25.066Z,7.03
2023-04-27T08:26:27.420Z,3.40
2023-04-27T08:27:29.736Z,4.68
2023-04-27T08:28:31.615Z,4.10
2023-04-27T08:29:33.708Z,5.10
2023-04-27T08:30:36.442Z,6.65
2023-04-27T08:32:41.162Z,5.05
2023-04-27T08:33:43.115Z,2.45
2023-04-27T08:34:46.681Z,4.03
2023-04-27T08:35:48.962Z,2.90
2023-04-27T08:36:51.213Z,5.75
2023-04-27T08:37:54.535Z,3.58
2023-04-27T08:38:56.611Z,4.72
2023-04-27T08:40:00.011Z,4.40
2023-04-27T08:41:10.874Z,3.28
2023-04-27T08:42:22.601Z,5.53
2023-04-27T08:43:24.608Z,2.58
2023-04-27T08:44:27.015Z,5.32
2023-04-27T08:45:29.153Z,2.55
2023-04-27T08:46:31.769Z,4.28
2023-04-27T08:47:42.484Z,3.47
2023-04-27T08:48:47.322Z,3.50
2023-04-27T08:49:49.313Z,6.00
2023-04-27T08:50:52.391Z,3.33
2023-04-27T08:51:54.238Z,4.40
2023-04-27T08:52:56.632Z,4.75
2023-04-27T08:53:59.030Z,4.85
2023-04-27T08:55:00.983Z,4.55
2023-04-27T08:56:05.086Z,3.55
2023-04-27T08:57:12.172Z,3.78
2023-04-27T08:58:14.162Z,3.17
2023-04-27T08:59:17.388Z,5.63
2023-04-27T09:00:20.449Z,4.28
2023-04-27T09:01:24.197Z,2.55
2023-04-27T09:02:29.701Z,5.43
2023-04-27T09:03:32.406Z,4.97
2023-04-27T09:04:41.198Z,5.00
2023-04-27T09:06:03.004Z,3.15
2023-04-27T09:07:14.217Z,3.08
2023-04-27T09:08:16.591Z,6.63
2023-04-27T09:09:22.667Z,2.72
2023-04-27T09:10:25.205Z,3.70
2023-04-27T09:11:34.184Z,3.30
2023-04-27T09:12:36.135Z,2.97
2023-04-27T09:13:45.237Z,5.40
2023-04-27T09:15:04.017Z,4.93
2023-04-27T09:16:06.280Z,4.13
2023-04-27T09:17:08.781Z,4.53
2023-04-27T09:18:21.665Z,3.38
2023-04-27T09:19:25.466Z,2.78
2023-04-27T09:20:27.554Z,3.28
2023-04-27T09:21:31.455Z,2.92
2023-04-27T09:22:43.028Z,4.22
2023-04-27T09:23:46.636Z,4.60
2023-04-27T09:24:52.784Z,3.35
2023-04-27T09:25:56.731Z,3.78
2023-04-27T09:27:00.678Z,5.45
2023-04-27T09:28:03.444Z,4.90
2023-04-27T09:29:05.577Z,4.85
2023-04-27T09:30:15.073Z,4.13
2023-04-27T09:31:17.382Z,3.05
2023-04-27T09:32:21.250Z,3.70
2023-04-27T09:33:28.688Z,3.30
2023-04-27T09:34:41.305Z,2.38
2023-04-27T09:35:46.127Z,4.85
2023-04-27T09:36:49.117Z,1.88
2023-04-27T09:37:54.962Z,1.70
2023-04-27T09:38:58.008Z,2.03
2023-04-27T09:40:01.714Z,1.45
2023-04-27T09:41:04.159Z,3.05
2023-04-27T09:42:06.381Z,1.95
2023-04-27T09:43:08.435Z,1.98
2023-04-27T09:44:10.281Z,2.90
2023-04-27T09:45:13.602Z,2.42
2023-04-27T09:46:15.955Z,2.58
2023-04-27T09:47:18.157Z,3.45
2023-04-27T09:48:23.072Z,2.97
2023-04-27T09:49:26.894Z,3.42
2023-04-27T09:50:28.861Z,2.33
2023-04-27T09:51:32.145Z,2.63
2023-04-27T09:52:34.183Z,2.72
2023-04-27T09:53:41.314Z,2.35
2023-04-27T09:54:43.671Z,1.77
2023-04-27T09:56:18.083Z,4.07
2023-04-27T09:57:28.442Z,3.72
2023-04-27T09:59:07.898Z,2.85
2023-04-27T10:01:37.263Z,6.00
2023-04-27T10:03:02.505Z,2.30
2023-04-27T10:04:31.679Z,3.55
2023-04-27T10:06:00.111Z,1.58
2023-04-27T10:07:12.956Z,1.30
2023-04-27T10:08:15.391Z,1.70
2023-04-27T10:09:23.742Z,1.83
2023-04-27T10:10:25.826Z,1.70
2023-04-27T10:11:41.116Z,3.33
2023-04-27T10:12:43.107Z,5.88
2023-04-27T10:13:55.636Z,2.97
2023-04-27T10:14:59.867Z,2.25
2023-04-27T10:16:16.965Z,2.72
2023-04-27T10:17:20.185Z,1.92
2023-04-27T10:18:28.085Z,2.53
2023-04-27T10:19:30.419Z,2.03
2023-04-27T10:20:36.652Z,2.42
2023-04-27T10:21:38.747Z,2.35
2023-04-27T10:22:46.324Z,2.20
2023-04-27T10:23:51.195Z,3.05
2023-04-27T10:24:53.306Z,1.30
2023-04-27T10:25:55.340Z,1.88
2023-04-27T10:27:03.443Z,2.47
2023-04-27T10:28:08.161Z,2.40
2023-04-27T10:29:16.511Z,1.58
2023-04-27T10:30:20.102Z,1.40
2023-04-27T10:31:28.721Z,1.25
2023-04-27T10:32:30.644Z,2.63
2023-04-27T10:33:43.556Z,1.73
2023-04-27T10:34:49.429Z,2.60
2023-04-27T10:35:56.781Z,2.35
2023-04-27T10:37:06.865Z,2.13
2023-04-27T10:38:09.408Z,1.60
2023-04-27T10:39:16.895Z,1.52
2023-04-27T10:40:19.458Z,1.70
2023-04-27T10:41:21.390Z,1.98
2023-04-27T10:42:30.893Z,3.50
2023-04-27T10:43:35.311Z,1.15
2023-04-27T10:44:38.945Z,2.42
2023-04-27T10:45:42.793Z,1.90
2023-04-27T10:46:52.701Z,2.83
2023-04-27T10:48:00.252Z,2.33
2023-04-27T10:49:05.670Z,2.38
2023-04-27T10:50:11.611Z,2.05
2023-04-27T10:51:17.735Z,1.90
2023-04-27T10:52:19.960Z,1.13
2023-04-27T10:53:22.260Z,2.28
2023-04-27T10:54:29.383Z,2.20
2023-04-27T10:55:31.865Z,1.15
2023-04-27T10:56:33.738Z,2.80
2023-04-27T10:57:46.659Z,3.70
2023-04-27T10:58:49.499Z,2.40
2023-04-27T10:59:53.404Z,1.73
2023-04-27T11:00:56.008Z,4.28
2023-04-27T11:01:58.505Z,1.55
2023-04-27T11:03:12.675Z,1.85
2023-04-27T11:04:16.869Z,2.08
2023-04-27T11:05:21.061Z,2.25
2023-04-27T11:06:23.475Z,1.85
2023-04-27T11:07:26.751Z,1.50
2023-04-27T11:08:30.916Z,1.15
2023-04-27T11:09:32.950Z,2.10
2023-04-27T11:10:38.439Z,2.88
2023-04-27T11:11:45.153Z,2.90
2023-04-27T11:12:47.358Z,1.52
2023-04-27T11:13:50.251Z,2.67
2023-04-27T11:14:58.610Z,2.85
2023-04-27T11:16:00.680Z,1.30
2023-04-27T11:17:04.511Z,2.50
2023-04-27T11:18:07.061Z,3.35
2023-04-27T11:19:09.512Z,2.75
2023-04-27T11:20:11.570Z,1.90
2023-04-27T11:21:16.774Z,1.38
2023-04-27T11:22:18.916Z,1.35
2023-04-27T11:23:30.494Z,2.03
2023-04-27T11:24:35.268Z,2.40
2023-04-27T11:25:38.484Z,2.47
2023-04-27T11:26:40.601Z,2.65
2023-04-27T11:27:43.081Z,1.20
2023-04-27T11:28:57.216Z,1.35
2023-04-27T11:29:59.171Z,13.73
2023-04-27T11:31:01.375Z,3.58
2023-04-27T11:32:04.775Z,2.00
2023-04-27T11:33:09.753Z,2.58
2023-04-27T11:34:16.381Z,1.65
2023-04-27T11:35:18.629Z,1.00
2023-04-27T11:36:23.229Z,1.27
2023-04-27T11:37:27.171Z,2.50
2023-04-27T11:38:35.157Z,2.38
2023-04-27T11:39:38.973Z,2.35
2023-04-27T11:40:42.929Z,2.13
2023-04-27T11:41:46.630Z,1.50
2023-04-27T11:42:58.284Z,2.15
2023-04-27T11:44:10.304Z,1.95
2023-04-27T11:45:13.362Z,1.10
2023-04-27T11:46:15.753Z,3.80
2023-04-27T11:47:21.341Z,2.13
2023-04-27T11:48:24.346Z,1.20
2023-04-27T11:49:26.578Z,3.90
2023-04-27T11:50:28.508Z,2.10
2023-04-27T11:51:33.324Z,1.50
2023-04-27T11:52:36.704Z,1.85
2023-04-27T11:53:40.104Z,2.63
2023-04-27T11:54:49.929Z,3.47
2023-04-27T11:55:52.724Z,4.50
2023-04-27T11:58:07.479Z,1.65
2023-04-27T11:59:26.628Z,2.25
2023-04-27T12:00:28.967Z,2.40
2023-04-27T12:01:38.276Z,1.63
2023-04-27T12:02:42.137Z,1.30
2023-04-27T12:03:44.503Z,1.02
2023-04-27T12:04:46.888Z,2.13
2023-04-27T12:05:53.097Z,1.67
2023-04-27T12:06:55.421Z,3.40
2023-04-27T12:07:57.455Z,1.60
2023-04-27T12:08:59.358Z,1.95
2023-04-27T12:10:01.646Z,3.28
2023-04-27T12:11:04.025Z,2.00
2023-04-27T12:12:06.757Z,1.58
2023-04-27T12:13:08.849Z,1.55
2023-04-27T12:14:10.944Z,1.67
2023-04-27T12:15:13.294Z,2.47
2023-04-27T12:16:15.307Z,2.47
2023-04-27T12:17:17.601Z,2.08
2023-04-27T12:18:19.625Z,1.50
2023-04-27T12:19:24.479Z,1.48
2023-04-27T12:20:26.436Z,1.10
2023-04-27T12:21:28.330Z,1.92
2023-04-27T12:22:30.287Z,1.98
2023-04-27T12:23:32.536Z,1.75
2023-04-27T12:24:34.959Z,2.45
2023-04-27T12:25:36.986Z,1.83
2023-04-27T12:26:38.954Z,1.10
2023-04-27T12:27:41.347Z,1.45
2023-04-27T12:28:43.570Z,3.33
2023-04-27T12:29:45.613Z,2.17
2023-04-27T12:30:47.584Z,1.50
2023-04-27T12:31:50.497Z,2.53
2023-04-27T12:32:52.532Z,2.13
2023-04-27T12:33:54.583Z,2.53
2023-04-27T12:34:56.529Z,1.58
2023-04-27T12:35:58.862Z,1.52
2023-04-27T12:37:01.205Z,3.63
2023-04-27T12:38:03.740Z,2.97
2023-04-27T12:39:19.981Z,2.90
2023-04-27T12:40:23.437Z,1.52
2023-04-27T12:41:25.580Z,2.03
2023-04-27T12:42:27.748Z,1.70
2023-04-27T12:43:29.720Z,1.40
2023-04-27T12:44:32.472Z,3.92
2023-04-27T12:45:34.469Z,2.45
2023-04-27T12:46:36.423Z,2.00
2023-04-27T12:47:58.107Z,1.42
2023-04-27T12:49:01.496Z,1.60
2023-04-27T12:51:07.047Z,1.10
2023-04-27T12:52:09.762Z,2.33
2023-04-27T12:53:12.626Z,1.65
2023-04-27T12:54:14.712Z,1.23
2023-04-27T12:55:31.437Z,2.72
2023-04-27T12:56:34.393Z,2.90
2023-04-27T12:58:38.555Z,2.00
2023-04-27T12:59:41.565Z,3.28
2023-04-27T13:00:43.668Z,1.60
2023-04-27T13:01:46.546Z,3.15
2023-04-27T13:02:48.678Z,2.33
2023-04-27T13:04:00.398Z,1.85
2023-04-27T13:05:04.433Z,1.20
2023-04-27T13:06:06.909Z,1.13
2023-04-27T13:07:08.809Z,1.33
2023-04-27T13:08:10.868Z,1.77
2023-04-27T13:09:13.447Z,1.73
2023-04-27T13:10:16.136Z,1.67
2023-04-27T13:11:18.313Z,1.33
2023-04-27T13:12:20.400Z,1.63
2023-04-27T13:13:22.750Z,1.40
2023-04-27T13:14:24.968Z,2.20
2023-04-27T13:15:27.050Z,1.63
2023-04-27T13:16:29.363Z,2.15
2023-04-27T13:17:31.805Z,1.50
2023-04-27T13:18:35.021Z,3.60
2023-04-27T13:19:37.174Z,4.20
2023-04-27T13:20:39.167Z,1.73
2023-04-27T13:21:41.539Z,2.00
2023-04-27T13:22:43.684Z,2.08
2023-04-27T13:23:45.664Z,2.20
2023-04-27T13:24:47.641Z,1.30
2023-04-27T13:25:50.042Z,3.17
2023-04-27T13:26:52.034Z,1.10
2023-04-27T13:27:54.257Z,1.75
2023-04-27T13:28:56.266Z,1.70
2023-04-27T13:29:58.531Z,1.98
2023-04-27T13:31:00.644Z,1.75
2023-04-27T13:32:02.767Z,4.07
2023-04-27T13:33:21.226Z,4.25
2023-04-27T13:34:25.993Z,2.33
2023-04-27T13:36:29.957Z,1.02
2023-04-27T13:37:32.590Z,1.95
2023-04-27T13:38:34.822Z,1.45
2023-04-27T13:39:37.830Z,1.30
2023-04-27T13:40:39.796Z,2.08
2023-04-27T13:41:41.853Z,1.85
2023-04-27T13:42:44.110Z,1.85
2023-04-27T13:43:46.045Z,1.80
2023-04-27T13:44:47.904Z,2.08
2023-04-27T13:45:52.669Z,2.42
2023-04-27T13:46:55.199Z,1.30
2023-04-27T13:47:57.155Z,1.70
2023-04-27T13:48:59.310Z,1.33
2023-04-27T13:50:01.432Z,2.60
2023-04-27T13:51:03.883Z,1.80
2023-04-27T13:52:05.871Z,1.40
2023-04-27T13:53:08.927Z,3.00
2023-04-27T13:54:10.867Z,2.67
2023-04-27T13:55:13.133Z,1.77
2023-04-27T13:56:15.058Z,2.50
2023-04-27T13:57:16.981Z,2.53
2023-04-27T13:58:18.973Z,1.70
2023-04-27T13:59:21.977Z,1.70
2023-04-27T14:00:24.143Z,2.10
2023-04-27T14:01:27.211Z,3.10
2023-04-27T14:02:30.206Z,3.60
2023-04-27T14:03:34.169Z,2.30
2023-04-27T14:04:36.270Z,1.90
2023-04-27T14:05:38.256Z,2.92
2023-04-27T14:06:40.216Z,1.90
2023-04-27T14:07:42.544Z,3.50
2023-04-27T14:08:44.532Z,1.90
2023-04-27T14:09:46.802Z,2.10
2023-04-27T14:10:49.181Z,1.63
2023-04-27T14:11:56.930Z,2.10
2023-04-27T14:12:59.311Z,3.10
2023-04-27T14:14:01.301Z,2.17
2023-04-27T14:15:03.620Z,1.75
2023-04-27T14:16:06.799Z,2.00
2023-04-27T14:17:08.981Z,2.40
2023-04-27T14:18:11.208Z,3.15
2023-04-27T14:19:16.277Z,5.20
2023-04-27T14:20:18.741Z,1.98